Skagerak — SGCD — position and weather

sailwx.info

Track history (hours):
 
Tides and Currents Weather Stations Pressure Air Temp Water Temp Dewpoint Dewpoint Depression Visibility Wind Speed Wind Dir Waves Ship Positions

Oceanographic research ship Skagerak (Sweden)

Detailed information on ship capabilities available from University of Delaware's Ocean Information Center.

Last reported at 2018-Dec-13 14:42 UTC. Time now 2018-Dec-13 15:09 UTC.
Position N 58°15' E 011°27'.

Length 38 m; draft 3.8 m.

Type: Dredging. MMSI: 265280000.

Date/timePositionNaut miles runAvg speedWind from/ knotsBaromVisibWave heightAir tempDewpointWater temp
2018-Dec-13 14:42N 58°15' E 011°27'0 0.0
2018-Dec-13 14:27N 58°15' E 011°27'0 0.0
2018-Dec-13 13:55N 58°15' E 011°27'0 0.0
2018-Dec-13 13:30N 58°15' E 011°27'0 0.0
2018-Dec-13 12:59N 58°15' E 011°27'0 0.0
2018-Dec-13 12:30N 58°15' E 011°27'0 0.3
2018-Dec-13 11:59N 58°15' E 011°27'0 0.3
2018-Dec-13 11:22N 58°15' E 011°27'0 0.0
2018-Dec-13 10:51N 58°15' E 011°27'0 0.0
2018-Dec-13 10:20N 58°15' E 011°27'0 0.0
2018-Dec-13 09:24N 58°15' E 011°27'0 0.0
2018-Dec-13 06:53N 58°15' E 011°27'0 0.0
2018-Dec-13 05:35N 58°15' E 011°27'0 0.0
2018-Dec-13 05:22N 58°15' E 011°27'0 0.0
2018-Dec-13 04:59N 58°15' E 011°27'0 0.0
2018-Dec-13 04:29N 58°15' E 011°27'0 0.0
2018-Dec-13 03:59N 58°15' E 011°27'0 0.0
2018-Dec-13 03:24N 58°15' E 011°27'0 0.0
2018-Dec-13 02:51N 58°15' E 011°27'0 0.0
2018-Dec-13 02:30N 58°15' E 011°27'0 0.0
2018-Dec-13 01:50N 58°15' E 011°27'0 0.0
2018-Dec-13 01:24N 58°15' E 011°27'0 0.0
2018-Dec-13 01:00N 58°15' E 011°27'0 0.0
2018-Dec-13 00:21N 58°15' E 011°27'0 0.0
2018-Dec-13 00:00N 58°15' E 011°27'0 0.0
2018-Dec-12 23:24N 58°15' E 011°27'0 0.0
2018-Dec-12 22:53N 58°15' E 011°27'0 0.0
2018-Dec-12 21:15N 58°15' E 011°27'0 0.0
2018-Dec-12 20:49N 58°15' E 011°27'0 0.0
2018-Dec-12 20:15N 58°15' E 011°27'0 0.0
2018-Dec-12 19:03N 58°15' E 011°27'0 0.0
2018-Dec-12 18:08N 58°15' E 011°27'0 0.0
2018-Dec-12 16:43N 58°15' E 011°27'0 0.0
2018-Dec-12 16:22N 58°15' E 011°27'0 0.0
2018-Dec-12 15:56N 58°15' E 011°27'0 0.0
2018-Dec-12 15:30N 58°15' E 011°27'0 0.0
2018-Dec-12 14:48N 58°15' E 011°27'0 0.0
2018-Dec-12 14:30N 58°15' E 011°27'0 0.0
2018-Dec-12 13:51N 58°15' E 011°27'0 0.0
2018-Dec-12 13:30N 58°15' E 011°27'0 0.0
2018-Dec-12 12:56N 58°15' E 011°27'0 0.0
2018-Dec-12 12:28N 58°15' E 011°27'0 0.0
2018-Dec-12 11:49N 58°15' E 011°27'0 0.0
2018-Dec-12 11:04N 58°15' E 011°27'0 0.0
2018-Dec-12 10:21N 58°15' E 011°27'0 0.0
2018-Dec-12 09:25N 58°15' E 011°27'0 0.0
2018-Dec-12 06:49N 58°15' E 011°27'0 0.0
2018-Dec-12 05:26N 58°15' E 011°27'0 0.0
2018-Dec-12 04:58N 58°15' E 011°27'0 0.0
2018-Dec-12 04:22N 58°15' E 011°27'0 0.0
2018-Dec-12 04:00N 58°15' E 011°27'0 0.0
2018-Dec-12 03:16N 58°15' E 011°27'0 0.0
2018-Dec-12 02:53N 58°15' E 011°27'0 0.0
2018-Dec-12 01:52N 58°15' E 011°27'0 0.0
2018-Dec-12 01:24N 58°15' E 011°27'0 0.0
2018-Dec-12 00:57N 58°15' E 011°27'0 0.0
2018-Dec-12 00:27N 58°15' E 011°27'0 0.0
2018-Dec-11 23:33N 58°15' E 011°27'0 0.1
2018-Dec-11 23:28N 58°15' E 011°27'0 0.0
2018-Dec-11 22:56N 58°15' E 011°27'0 0.0
2018-Dec-11 22:16N 58°15' E 011°27'0 0.0
2018-Dec-11 21:01N 58°15' E 011°27'0 0.0
2018-Dec-11 16:31N 58°15' E 011°27'0 0.1
2018-Dec-11 16:17N 58°15' E 011°27'0 0.0
2018-Dec-11 15:42N 58°15' E 011°27'0 0.0
2018-Dec-11 15:15N 58°15' E 011°27'0 0.0
2018-Dec-11 14:54N 58°15' E 011°27'0 0.1
2018-Dec-11 14:28N 58°15' E 011°27'1 0.2
2018-Dec-11 08:46N 58°16' E 011°28'1 0.1
2018-Dec-10 16:17N 58°15' E 011°27'0 1.7
2018-Dec-10 16:00N 58°16' E 011°27'1 1.7
2018-Dec-10 15:27N 58°16' E 011°29'1 1.4
2018-Dec-10 15:00N 58°16' E 011°28'0 0.9
2018-Dec-10 14:28N 58°16' E 011°29'1 1.4
2018-Dec-10 13:51N 58°17' E 011°30'1 2.8
2018-Dec-10 13:23N 58°16' E 011°28'4 9.3
2018-Dec-10 13:00N 58°13' E 011°25'4 8.7
2018-Dec-10 12:30N 58°10' E 011°20'2 4.8
2018-Dec-10 12:00N 58°12' E 011°18'2 3.7
2018-Dec-10 11:31N 58°14' E 011°19'2 4.8
2018-Dec-10 11:00N 58°16' E 011°17'1 2.7
2018-Dec-10 10:30N 58°15' E 011°19'1 3.0
2018-Dec-10 10:00N 58°16' E 011°22'  
2018-Dec-06 16:07N 58°15' E 011°27'1 8.6
2018-Dec-06 15:58N 58°16' E 011°28'1 0.5
2018-Dec-06 14:59N 58°16' E 011°29'0 0.6
2018-Dec-06 14:23N 58°16' E 011°28'1 3.3
2018-Dec-06 13:58N 58°16' E 011°26'0 0.1
2018-Dec-06 13:24N 58°16' E 011°26'1 1.9
2018-Dec-06 12:59N 58°16' E 011°25'1 0.9
2018-Dec-06 11:29N 58°15' E 011°27'0 0.1
2018-Dec-06 07:22N 58°15' E 011°27'0 0.0
2018-Dec-04 15:23N 58°15' E 011°27'2 2.5
2018-Dec-04 14:40N 58°16' E 011°29'0 0.1
2018-Dec-04 14:29N 58°16' E 011°29'0 0.1
2018-Dec-04 13:56N 58°16' E 011°29'2 3.8
2018-Dec-04 13:28N 58°16' E 011°26'0 0.1
2018-Dec-04 13:00N 58°16' E 011°26'0 0.1
2018-Dec-04 12:30N 58°16' E 011°26'1 0.6
2018-Dec-04 11:20N 58°15' E 011°27'6 3.0
2018-Dec-04 09:13N 58°20' E 011°34'1 2.8
2018-Dec-04 08:55N 58°19' E 011°33'0 0.1
2018-Dec-04 08:19N 58°19' E 011°33'4 4.8
2018-Dec-04 07:26N 58°16' E 011°28'1 0.6
2018-Dec-04 05:35N 58°15' E 011°27'  
Track history (hours):
 
Tides and Currents Weather Stations Pressure Air Temp Water Temp Dewpoint Dewpoint Depression Visibility Wind Speed Wind Dir Waves Ship Positions

Oceanographic research ship Skagerak (Sweden)

Detailed information on ship capabilities available from University of Delaware's Ocean Information Center.

Last reported at 2018-Dec-13 14:42 UTC. Time now 2018-Dec-13 15:09 UTC.
Position N 58°15' E 011°27'.

Length 38 m; draft 3.8 m.

Type: Dredging. MMSI: 265280000.

Date/timePositionNaut miles runAvg speedWind from/ knotsBaromVisibWave heightAir tempDewpointWater temp
2018-Dec-13 14:42N 58°15' E 011°27'0 0.0
2018-Dec-13 14:27N 58°15' E 011°27'0 0.0
2018-Dec-13 13:55N 58°15' E 011°27'0 0.0
2018-Dec-13 13:30N 58°15' E 011°27'0 0.0
2018-Dec-13 12:59N 58°15' E 011°27'0 0.0
2018-Dec-13 12:30N 58°15' E 011°27'0 0.3
2018-Dec-13 11:59N 58°15' E 011°27'0 0.3
2018-Dec-13 11:22N 58°15' E 011°27'0 0.0
2018-Dec-13 10:51N 58°15' E 011°27'0 0.0
2018-Dec-13 10:20N 58°15' E 011°27'0 0.0
2018-Dec-13 09:24N 58°15' E 011°27'0 0.0
2018-Dec-13 06:53N 58°15' E 011°27'0 0.0
2018-Dec-13 05:35N 58°15' E 011°27'0 0.0
2018-Dec-13 05:22N 58°15' E 011°27'0 0.0
2018-Dec-13 04:59N 58°15' E 011°27'0 0.0
2018-Dec-13 04:29N 58°15' E 011°27'0 0.0
2018-Dec-13 03:59N 58°15' E 011°27'0 0.0
2018-Dec-13 03:24N 58°15' E 011°27'0 0.0
2018-Dec-13 02:51N 58°15' E 011°27'0 0.0
2018-Dec-13 02:30N 58°15' E 011°27'0 0.0
2018-Dec-13 01:50N 58°15' E 011°27'0 0.0
2018-Dec-13 01:24N 58°15' E 011°27'0 0.0
2018-Dec-13 01:00N 58°15' E 011°27'0 0.0
2018-Dec-13 00:21N 58°15' E 011°27'0 0.0
2018-Dec-13 00:00N 58°15' E 011°27'0 0.0
2018-Dec-12 23:24N 58°15' E 011°27'0 0.0
2018-Dec-12 22:53N 58°15' E 011°27'0 0.0
2018-Dec-12 21:15N 58°15' E 011°27'0 0.0
2018-Dec-12 20:49N 58°15' E 011°27'0 0.0
2018-Dec-12 20:15N 58°15' E 011°27'0 0.0
2018-Dec-12 19:03N 58°15' E 011°27'0 0.0
2018-Dec-12 18:08N 58°15' E 011°27'0 0.0
2018-Dec-12 16:43N 58°15' E 011°27'0 0.0
2018-Dec-12 16:22N 58°15' E 011°27'0 0.0
2018-Dec-12 15:56N 58°15' E 011°27'0 0.0
2018-Dec-12 15:30N 58°15' E 011°27'0 0.0
2018-Dec-12 14:48N 58°15' E 011°27'0 0.0
2018-Dec-12 14:30N 58°15' E 011°27'0 0.0
2018-Dec-12 13:51N 58°15' E 011°27'0 0.0
2018-Dec-12 13:30N 58°15' E 011°27'0 0.0
2018-Dec-12 12:56N 58°15' E 011°27'0 0.0
2018-Dec-12 12:28N 58°15' E 011°27'0 0.0
2018-Dec-12 11:49N 58°15' E 011°27'0 0.0
2018-Dec-12 11:04N 58°15' E 011°27'0 0.0
2018-Dec-12 10:21N 58°15' E 011°27'0 0.0
2018-Dec-12 09:25N 58°15' E 011°27'0 0.0
2018-Dec-12 06:49N 58°15' E 011°27'0 0.0
2018-Dec-12 05:26N 58°15' E 011°27'0 0.0
2018-Dec-12 04:58N 58°15' E 011°27'0 0.0
2018-Dec-12 04:22N 58°15' E 011°27'0 0.0
2018-Dec-12 04:00N 58°15' E 011°27'0 0.0
2018-Dec-12 03:16N 58°15' E 011°27'0 0.0
2018-Dec-12 02:53N 58°15' E 011°27'0 0.0
2018-Dec-12 01:52N 58°15' E 011°27'0 0.0
2018-Dec-12 01:24N 58°15' E 011°27'0 0.0
2018-Dec-12 00:57N 58°15' E 011°27'0 0.0
2018-Dec-12 00:27N 58°15' E 011°27'0 0.0
2018-Dec-11 23:33N 58°15' E 011°27'0 0.1
2018-Dec-11 23:28N 58°15' E 011°27'0 0.0
2018-Dec-11 22:56N 58°15' E 011°27'0 0.0
2018-Dec-11 22:16N 58°15' E 011°27'0 0.0
2018-Dec-11 21:01N 58°15' E 011°27'0 0.0
2018-Dec-11 16:31N 58°15' E 011°27'0 0.1
2018-Dec-11 16:17N 58°15' E 011°27'0 0.0
2018-Dec-11 15:42N 58°15' E 011°27'0 0.0
2018-Dec-11 15:15N 58°15' E 011°27'0 0.0
2018-Dec-11 14:54N 58°15' E 011°27'0 0.1
2018-Dec-11 14:28N 58°15' E 011°27'1 0.2
2018-Dec-11 08:46N 58°16' E 011°28'1 0.1
2018-Dec-10 16:17N 58°15' E 011°27'0 1.7
2018-Dec-10 16:00N 58°16' E 011°27'1 1.7
2018-Dec-10 15:27N 58°16' E 011°29'1 1.4
2018-Dec-10 15:00N 58°16' E 011°28'0 0.9
2018-Dec-10 14:28N 58°16' E 011°29'1 1.4
2018-Dec-10 13:51N 58°17' E 011°30'1 2.8
2018-Dec-10 13:23N 58°16' E 011°28'4 9.3
2018-Dec-10 13:00N 58°13' E 011°25'4 8.7
2018-Dec-10 12:30N 58°10' E 011°20'2 4.8
2018-Dec-10 12:00N 58°12' E 011°18'2 3.7
2018-Dec-10 11:31N 58°14' E 011°19'2 4.8
2018-Dec-10 11:00N 58°16' E 011°17'1 2.7
2018-Dec-10 10:30N 58°15' E 011°19'1 3.0
2018-Dec-10 10:00N 58°16' E 011°22'  
2018-Dec-06 16:07N 58°15' E 011°27'1 8.6
2018-Dec-06 15:58N 58°16' E 011°28'1 0.5
2018-Dec-06 14:59N 58°16' E 011°29'0 0.6
2018-Dec-06 14:23N 58°16' E 011°28'1 3.3
2018-Dec-06 13:58N 58°16' E 011°26'0 0.1
2018-Dec-06 13:24N 58°16' E 011°26'1 1.9
2018-Dec-06 12:59N 58°16' E 011°25'1 0.9
2018-Dec-06 11:29N 58°15' E 011°27'0 0.1
2018-Dec-06 07:22N 58°15' E 011°27'0 0.0
2018-Dec-04 15:23N 58°15' E 011°27'2 2.5
2018-Dec-04 14:40N 58°16' E 011°29'0 0.1
2018-Dec-04 14:29N 58°16' E 011°29'0 0.1
2018-Dec-04 13:56N 58°16' E 011°29'2 3.8
2018-Dec-04 13:28N 58°16' E 011°26'0 0.1
2018-Dec-04 13:00N 58°16' E 011°26'0 0.1
2018-Dec-04 12:30N 58°16' E 011°26'1 0.6
2018-Dec-04 11:20N 58°15' E 011°27'6 3.0
2018-Dec-04 09:13N 58°20' E 011°34'1 2.8
2018-Dec-04 08:55N 58°19' E 011°33'0 0.1
2018-Dec-04 08:19N 58°19' E 011°33'4 4.8
2018-Dec-04 07:26N 58°16' E 011°28'1 0.6
2018-Dec-04 05:35N 58°15' E 011°27'  

Dump ship's entire track history